createdAt,value
2023-03-11T00:00:33.749Z,-0.96
2023-03-11T00:03:01.925Z,-1.00
2023-03-11T00:05:30.596Z,-1.03
2023-03-11T00:07:57.658Z,-1.04
2023-03-11T00:10:33.653Z,-1.03
2023-03-11T00:13:01.695Z,-1.01
2023-03-11T00:15:29.710Z,-0.98
2023-03-11T00:17:57.725Z,-0.98
2023-03-11T00:20:27.569Z,-0.95
2023-03-11T00:22:57.155Z,-0.97
2023-03-11T00:25:26.100Z,-0.97
2023-03-11T00:27:55.274Z,-0.96
2023-03-11T00:30:23.003Z,-0.94
2023-03-11T00:32:55.134Z,-0.95
2023-03-11T00:35:24.848Z,-0.93
2023-03-11T00:37:55.314Z,-0.95
2023-03-11T00:40:23.990Z,-0.97
2023-03-11T00:42:50.790Z,-1.00
2023-03-11T00:45:17.797Z,-0.99
2023-03-11T00:47:45.846Z,-0.96
2023-03-11T00:50:19.016Z,-0.96
2023-03-11T00:52:48.755Z,-0.96
2023-03-11T00:55:21.179Z,-0.95
2023-03-11T00:57:47.907Z,-0.95
2023-03-11T01:00:16.813Z,-0.96
2023-03-11T01:02:43.609Z,-0.95
2023-03-11T01:05:10.726Z,-0.93
2023-03-11T01:07:37.387Z,-0.92
2023-03-11T01:10:06.105Z,-0.91
2023-03-11T01:12:32.553Z,-0.90
2023-03-11T01:15:00.984Z,-0.89
2023-03-11T01:17:28.369Z,-0.89
2023-03-11T01:19:54.865Z,-0.88
2023-03-11T01:22:22.080Z,-0.89
2023-03-11T01:24:48.744Z,-0.91
2023-03-11T01:27:15.458Z,-0.93
2023-03-11T01:29:44.316Z,-0.93
2023-03-11T01:32:11.374Z,-0.92
2023-03-11T01:34:37.947Z,-0.91
2023-03-11T01:37:04.751Z,-0.89
2023-03-11T01:39:31.225Z,-0.89
2023-03-11T01:41:58.154Z,-0.88
2023-03-11T01:44:25.253Z,-0.88
2023-03-11T01:46:52.179Z,-0.87
2023-03-11T01:49:22.516Z,-0.87
2023-03-11T01:51:53.425Z,-0.87
2023-03-11T01:54:23.767Z,-0.86
2023-03-11T01:56:52.677Z,-0.87
2023-03-11T01:59:24.512Z,-0.87
2023-03-11T02:02:15.671Z,-0.86
2023-03-11T02:04:43.251Z,-0.85
2023-03-11T02:07:10.831Z,-0.84
2023-03-11T02:09:37.412Z,-0.83
2023-03-11T02:12:06.935Z,-0.84
2023-03-11T02:14:35.731Z,-0.85
2023-03-11T02:17:03.396Z,-0.84
2023-03-11T02:19:48.735Z,-0.84
2023-03-11T02:22:16.425Z,-0.84
2023-03-11T02:24:48.926Z,-0.84
2023-03-11T02:27:19.894Z,-0.86
2023-03-11T02:29:51.429Z,-0.84
2023-03-11T02:32:19.838Z,-0.85
2023-03-11T02:34:46.531Z,-0.87
2023-03-11T02:37:15.803Z,-0.86
2023-03-11T02:39:50.585Z,-0.85
2023-03-11T02:42:22.524Z,-0.84
2023-03-11T02:45:02.798Z,-0.84
2023-03-11T02:47:30.642Z,-0.87
2023-03-11T02:49:57.563Z,-0.88
2023-03-11T02:52:33.500Z,-0.90
2023-03-11T02:54:59.943Z,-0.95
2023-03-11T02:57:26.609Z,-0.98
2023-03-11T02:59:53.393Z,-1.03
2023-03-11T03:02:20.112Z,-1.07
2023-03-11T03:04:47.467Z,-1.11
2023-03-11T03:07:14.952Z,-1.17
2023-03-11T03:09:41.653Z,-1.22
2023-03-11T03:12:08.479Z,-1.26
2023-03-11T03:14:36.219Z,-1.31
2023-03-11T03:17:02.989Z,-1.38
2023-03-11T03:19:29.568Z,-1.40
2023-03-11T03:21:56.147Z,-1.44
2023-03-11T03:24:23.818Z,-1.47
2023-03-11T03:26:50.468Z,-1.52
2023-03-11T03:29:16.951Z,-1.55
2023-03-11T03:31:47.043Z,-1.57
2023-03-11T03:34:13.635Z,-1.59
2023-03-11T03:36:40.305Z,-1.62
2023-03-11T03:39:07.058Z,-1.65
2023-03-11T03:41:36.278Z,-1.70
2023-03-11T03:44:03.789Z,-1.71
2023-03-11T03:46:31.445Z,-1.73
2023-03-11T03:48:59.117Z,-1.74
2023-03-11T03:51:26.811Z,-1.75
2023-03-11T03:54:14.505Z,-1.76
2023-03-11T03:56:41.067Z,-1.77
2023-03-11T03:59:07.744Z,-1.74
2023-03-11T04:01:40.027Z,-1.74
2023-03-11T04:04:08.297Z,-1.74
2023-03-11T04:06:34.960Z,-1.72
2023-03-11T04:09:04.502Z,-1.69
2023-03-11T04:11:34.335Z,-1.69
2023-03-11T04:14:02.575Z,-1.67
2023-03-11T04:16:31.377Z,-1.65
2023-03-11T04:19:05.769Z,-1.67
2023-03-11T04:21:33.627Z,-1.68
2023-03-11T04:24:00.871Z,-1.72
2023-03-11T04:26:32.096Z,-1.75
2023-03-11T04:28:58.576Z,-1.74
2023-03-11T04:31:27.413Z,-1.75
2023-03-11T04:33:55.922Z,-1.78
2023-03-11T04:36:22.814Z,-1.82
2023-03-11T04:38:49.732Z,-1.85
2023-03-11T04:41:17.071Z,-1.88
2023-03-11T04:43:45.201Z,-1.90
2023-03-11T04:46:11.931Z,-1.95
2023-03-11T04:48:40.209Z,-1.93
2023-03-11T04:51:07.779Z,-1.95
2023-03-11T04:53:34.606Z,-1.99
2023-03-11T04:56:01.742Z,-2.01
2023-03-11T04:58:29.992Z,-2.02
2023-03-11T05:00:56.845Z,-2.04
2023-03-11T05:03:24.358Z,-2.04
2023-03-11T05:05:53.129Z,-2.09
2023-03-11T05:08:20.771Z,-2.13
2023-03-11T05:10:47.400Z,-2.15
2023-03-11T05:13:13.901Z,-2.19
2023-03-11T05:15:41.771Z,-2.21
2023-03-11T05:18:09.541Z,-2.21
2023-03-11T05:20:38.124Z,-2.24
2023-03-11T05:23:05.596Z,-2.25
2023-03-11T05:25:35.811Z,-2.25
2023-03-11T05:28:03.515Z,-2.26
2023-03-11T05:30:31.757Z,-2.26
2023-03-11T05:32:58.995Z,-2.31
2023-03-11T05:35:26.179Z,-2.32
2023-03-11T05:37:54.916Z,-2.34
2023-03-11T05:40:22.997Z,-2.35
2023-03-11T05:42:57.770Z,-2.35
2023-03-11T05:45:26.057Z,-2.36
2023-03-11T05:47:54.450Z,-2.39
2023-03-11T05:50:21.019Z,-2.40
2023-03-11T05:52:52.042Z,-2.41
2023-03-11T05:55:19.769Z,-2.43
2023-03-11T05:57:46.767Z,-2.42
2023-03-11T06:00:13.702Z,-2.44
2023-03-11T06:02:42.025Z,-2.45
2023-03-11T06:05:13.732Z,-2.46
2023-03-11T06:07:41.775Z,-2.47
2023-03-11T06:10:09.046Z,-2.47
2023-03-11T06:12:35.981Z,-2.47
2023-03-11T06:15:13.459Z,-2.48
2023-03-11T06:17:40.818Z,-2.47
2023-03-11T06:20:09.755Z,-2.46
2023-03-11T06:22:38.969Z,-2.45
2023-03-11T06:25:08.985Z,-2.43
2023-03-11T06:27:37.233Z,-2.37
2023-03-11T06:30:05.197Z,-2.33
2023-03-11T06:32:37.344Z,-2.30
2023-03-11T06:35:04.892Z,-2.25
2023-03-11T06:37:36.123Z,-2.21
2023-03-11T06:40:03.081Z,-2.17
2023-03-11T06:42:29.671Z,-2.15
2023-03-11T06:44:57.999Z,-2.14
2023-03-11T06:47:27.867Z,-2.11
2023-03-11T06:49:55.123Z,-2.09
2023-03-11T06:52:21.664Z,-2.06
2023-03-11T06:54:50.523Z,-2.03
2023-03-11T06:57:17.371Z,-1.97
2023-03-11T06:59:46.126Z,-1.93
2023-03-11T07:02:15.142Z,-1.88
2023-03-11T07:04:42.846Z,-1.85
2023-03-11T07:07:09.432Z,-1.83
2023-03-11T07:09:36.410Z,-1.78
2023-03-11T07:12:06.813Z,-1.57
2023-03-11T07:14:36.342Z,-1.20
2023-03-11T07:17:03.015Z,-0.91
2023-03-11T07:19:35.897Z,-0.76
2023-03-11T07:22:02.683Z,-0.85
2023-03-11T07:24:29.388Z,-0.90
2023-03-11T07:26:56.080Z,-0.99
2023-03-11T07:29:22.554Z,-0.96
2023-03-11T07:31:49.429Z,-0.85
2023-03-11T07:34:16.588Z,-0.49
2023-03-11T07:36:43.609Z,0.41
2023-03-11T07:39:15.301Z,0.74
2023-03-11T07:41:41.989Z,0.75
2023-03-11T07:44:11.581Z,1.20
2023-03-11T07:46:38.311Z,1.78
2023-03-11T07:49:04.834Z,2.94
2023-03-11T07:51:33.733Z,4.47
2023-03-11T07:54:01.505Z,5.76
2023-03-11T07:56:31.653Z,6.80
2023-03-11T07:59:00.143Z,7.24
2023-03-11T08:01:35.885Z,8.04
2023-03-11T08:04:07.867Z,8.69
2023-03-11T08:06:36.239Z,9.07
2023-03-11T08:09:09.172Z,9.27
2023-03-11T08:11:36.777Z,9.80
2023-03-11T08:14:05.512Z,9.97
2023-03-11T08:16:32.417Z,10.15
2023-03-11T08:19:02.422Z,10.52
2023-03-11T08:21:32.253Z,10.34
2023-03-11T08:24:01.898Z,10.05
2023-03-11T08:26:31.375Z,10.09
2023-03-11T08:29:02.323Z,10.35
2023-03-11T08:31:39.569Z,10.72
2023-03-11T08:34:34.253Z,11.09
2023-03-11T08:37:01.445Z,11.69
2023-03-11T08:39:28.004Z,11.97
2023-03-11T08:41:54.601Z,12.31
2023-03-11T08:44:23.604Z,12.62
2023-03-11T08:46:51.668Z,12.81
2023-03-11T08:49:18.231Z,12.88
2023-03-11T08:51:44.732Z,12.67
2023-03-11T08:54:11.640Z,12.66
2023-03-11T08:59:21.946Z,12.64
2023-03-11T09:01:48.477Z,12.97
2023-03-11T09:04:15.757Z,12.78
2023-03-11T09:06:46.173Z,12.88
2023-03-11T09:09:12.773Z,13.12
2023-03-11T09:11:39.525Z,13.17
2023-03-11T09:14:19.618Z,13.40
2023-03-11T09:17:18.704Z,13.03
2023-03-11T09:19:46.409Z,11.96
2023-03-11T09:22:13.081Z,11.16
2023-03-11T09:24:39.842Z,11.01
2023-03-11T09:27:06.394Z,10.96
2023-03-11T09:29:32.973Z,11.09
2023-03-11T09:31:59.573Z,11.10
2023-03-11T09:34:26.326Z,11.21
2023-03-11T09:36:53.443Z,11.25
2023-03-11T09:39:24.685Z,11.20
2023-03-11T09:42:01.946Z,10.66
2023-03-11T09:44:39.888Z,10.57
2023-03-11T09:47:34.688Z,11.27
2023-03-11T09:50:29.071Z,12.30
2023-03-11T09:53:04.202Z,12.59
2023-03-11T09:55:45.378Z,12.99
2023-03-11T09:58:31.749Z,12.76
2023-03-11T10:00:59.301Z,12.69
2023-03-11T10:03:36.031Z,12.94
2023-03-11T10:06:11.976Z,13.17
2023-03-11T10:08:44.486Z,12.98
2023-03-11T10:11:27.498Z,13.30
2023-03-11T10:13:59.674Z,13.22
2023-03-11T10:16:44.384Z,12.90
2023-03-11T10:19:23.946Z,12.48
2023-03-11T10:21:59.198Z,12.42
2023-03-11T10:24:49.724Z,12.62
2023-03-11T10:27:21.667Z,12.72
2023-03-11T10:29:57.038Z,12.82
2023-03-11T10:32:38.544Z,12.93
2023-03-11T10:35:18.459Z,13.03
2023-03-11T10:38:26.073Z,12.76
2023-03-11T10:41:24.444Z,12.53
2023-03-11T10:44:24.071Z,12.86
2023-03-11T10:46:53.217Z,12.95
2023-03-11T10:49:19.939Z,12.97
2023-03-11T10:51:52.650Z,13.50
2023-03-11T10:54:49.381Z,14.08
2023-03-11T10:57:21.958Z,13.84
2023-03-11T10:59:53.919Z,14.05
2023-03-11T11:02:33.821Z,14.51
2023-03-11T11:05:18.633Z,14.15
2023-03-11T11:07:46.340Z,13.72
2023-03-11T11:10:17.626Z,14.27
2023-03-11T11:12:51.570Z,14.60
2023-03-11T11:15:30.628Z,14.79
2023-03-11T11:18:00.703Z,14.92
2023-03-11T11:20:28.952Z,14.94
2023-03-11T11:22:58.418Z,15.21
2023-03-11T11:25:37.052Z,15.55
2023-03-11T11:28:16.223Z,15.53
2023-03-11T11:30:57.723Z,15.94
2023-03-11T11:33:40.104Z,15.94
2023-03-11T11:36:16.159Z,15.71
2023-03-11T11:38:44.493Z,15.48
2023-03-11T11:41:17.600Z,14.95
2023-03-11T11:43:54.783Z,14.40
2023-03-11T11:46:30.271Z,14.41
2023-03-11T11:49:21.056Z,14.50
2023-03-11T11:52:06.373Z,14.92
2023-03-11T11:54:39.289Z,15.03
2023-03-11T11:57:13.420Z,14.92
2023-03-11T11:59:42.603Z,14.90
2023-03-11T12:02:46.356Z,15.59
2023-03-11T12:05:36.177Z,16.20
2023-03-11T12:08:35.575Z,16.28
2023-03-11T12:11:08.561Z,16.31
2023-03-11T12:14:03.092Z,15.20
2023-03-11T12:16:46.383Z,15.40
2023-03-11T12:19:46.344Z,15.42
2023-03-11T12:22:49.555Z,14.86
2023-03-11T12:25:27.156Z,14.63
2023-03-11T12:28:06.420Z,14.45
2023-03-11T12:30:37.194Z,14.17
2023-03-11T12:33:11.000Z,14.04
2023-03-11T12:35:37.600Z,13.89
2023-03-11T12:38:16.878Z,13.61
2023-03-11T12:41:03.930Z,13.22
2023-03-11T12:43:33.869Z,13.09
2023-03-11T12:46:01.396Z,12.95
2023-03-11T12:48:27.747Z,12.41
2023-03-11T12:50:54.797Z,12.17
2023-03-11T12:53:42.865Z,12.22
2023-03-11T12:56:36.492Z,12.11
2023-03-11T12:59:27.625Z,12.09
2023-03-11T13:02:09.424Z,11.93
2023-03-11T13:04:54.625Z,11.88
2023-03-11T13:07:43.411Z,11.98
2023-03-11T13:10:40.730Z,12.04
2023-03-11T13:13:25.530Z,12.16
2023-03-11T13:15:52.912Z,12.00
2023-03-11T13:18:44.593Z,11.86
2023-03-11T13:21:32.341Z,11.53
2023-03-11T13:24:29.533Z,11.33
2023-03-11T13:26:58.734Z,11.31
2023-03-11T13:29:59.892Z,10.91
2023-03-11T13:32:35.760Z,10.94
2023-03-11T13:35:27.334Z,10.97
2023-03-11T13:38:15.706Z,10.95
2023-03-11T13:40:45.450Z,10.96
2023-03-11T13:43:16.969Z,10.88
2023-03-11T13:45:52.994Z,11.02
2023-03-11T13:48:48.475Z,10.61
2023-03-11T13:51:22.965Z,10.49
2023-03-11T13:54:20.186Z,10.56
2023-03-11T13:56:53.988Z,10.58
2023-03-11T13:59:28.865Z,10.60
2023-03-11T14:02:19.627Z,10.51
2023-03-11T14:04:52.832Z,10.40
2023-03-11T14:07:31.774Z,10.30
2023-03-11T14:10:17.058Z,10.32
2023-03-11T14:12:43.826Z,10.23
2023-03-11T14:15:23.484Z,10.06
2023-03-11T14:17:53.911Z,9.92
2023-03-11T14:20:25.102Z,9.94
2023-03-11T14:22:54.187Z,10.03
2023-03-11T14:25:30.996Z,10.00
2023-03-11T14:28:01.033Z,9.85
2023-03-11T14:30:30.847Z,9.84
2023-03-11T14:32:58.931Z,9.76
2023-03-11T14:35:25.522Z,9.80
2023-03-11T14:37:52.584Z,9.76
2023-03-11T14:40:22.015Z,9.70
2023-03-11T14:42:53.677Z,9.60
2023-03-11T14:45:23.441Z,9.58
2023-03-11T14:48:09.358Z,9.65
2023-03-11T14:50:36.534Z,9.62
2023-03-11T14:53:29.398Z,9.55
2023-03-11T14:55:59.045Z,9.62
2023-03-11T14:58:37.082Z,9.73
2023-03-11T15:01:22.021Z,9.84
2023-03-11T15:03:56.104Z,9.72
2023-03-11T15:06:28.490Z,9.51
2023-03-11T15:09:03.253Z,9.27
2023-03-11T15:11:29.971Z,9.26
2023-03-11T15:14:16.960Z,9.14
2023-03-11T15:16:43.559Z,9.21
2023-03-11T15:19:29.550Z,9.23
2023-03-11T15:21:59.658Z,9.17
2023-03-11T15:24:28.500Z,9.04
2023-03-11T15:26:59.900Z,9.08
2023-03-11T15:29:27.448Z,9.06
2023-03-11T15:31:54.259Z,8.90
2023-03-11T15:34:28.888Z,8.86
2023-03-11T15:36:59.882Z,8.82
2023-03-11T15:39:32.386Z,8.90
2023-03-11T15:42:06.100Z,8.81
2023-03-11T15:44:36.906Z,8.59
2023-03-11T15:47:04.198Z,8.52
2023-03-11T15:49:31.446Z,8.54
2023-03-11T15:52:05.136Z,8.59
2023-03-11T15:54:31.623Z,8.64
2023-03-11T15:57:02.649Z,8.55
2023-03-11T15:59:30.092Z,8.43
2023-03-11T16:01:56.578Z,8.27
2023-03-11T16:04:23.362Z,8.17
2023-03-11T16:07:02.937Z,8.15
2023-03-11T16:09:34.219Z,8.07
2023-03-11T16:12:02.062Z,8.11
2023-03-11T16:14:28.659Z,8.00
2023-03-11T16:16:55.099Z,7.94
2023-03-11T16:19:21.555Z,7.86
2023-03-11T16:21:50.468Z,7.77
2023-03-11T16:24:20.923Z,7.69
2023-03-11T16:26:47.571Z,7.61
2023-03-11T16:29:19.303Z,7.59
2023-03-11T16:31:46.803Z,7.56
2023-03-11T16:34:13.233Z,7.54
2023-03-11T16:36:39.919Z,7.40
2023-03-11T16:39:07.558Z,7.32
2023-03-11T16:41:42.126Z,7.29
2023-03-11T16:44:10.110Z,7.26
2023-03-11T16:46:37.149Z,7.22
2023-03-11T16:49:04.019Z,7.14
2023-03-11T16:51:31.137Z,7.04
2023-03-11T16:53:57.720Z,7.03
2023-03-11T16:56:24.256Z,6.99
2023-03-11T16:58:50.824Z,6.93
2023-03-11T17:01:23.820Z,6.96
2023-03-11T17:03:51.916Z,6.96
2023-03-11T17:06:23.118Z,6.88
2023-03-11T17:08:49.974Z,6.87
2023-03-11T17:11:22.625Z,6.85
2023-03-11T17:13:51.154Z,6.79
2023-03-11T17:16:17.752Z,6.69
2023-03-11T17:18:44.604Z,6.62
2023-03-11T17:21:13.806Z,6.60
2023-03-11T17:23:41.816Z,6.58
2023-03-11T17:26:15.040Z,6.48
2023-03-11T17:28:43.589Z,6.31
2023-03-11T17:31:16.285Z,6.27
2023-03-11T17:33:44.264Z,6.29
2023-03-11T17:36:14.621Z,6.30
2023-03-11T17:38:42.414Z,6.22
2023-03-11T17:41:11.137Z,6.19
2023-03-11T17:43:37.580Z,6.13
2023-03-11T17:46:12.416Z,6.01
2023-03-11T17:48:38.993Z,5.94
2023-03-11T17:51:12.535Z,5.91
2023-03-11T17:53:41.059Z,5.85
2023-03-11T17:56:10.884Z,5.82
2023-03-11T17:58:37.530Z,5.73
2023-03-11T18:01:06.499Z,5.66
2023-03-11T18:03:33.303Z,5.59
2023-03-11T18:06:05.011Z,5.55
2023-03-11T18:08:33.768Z,5.38
2023-03-11T18:11:03.059Z,5.37
2023-03-11T18:13:31.134Z,5.29
2023-03-11T18:15:59.701Z,5.18
2023-03-11T18:18:26.407Z,5.10
2023-03-11T18:20:53.144Z,4.99
2023-03-11T18:23:19.852Z,4.96
2023-03-11T18:25:52.988Z,4.93
2023-03-11T18:28:19.669Z,4.89
2023-03-11T18:30:46.252Z,4.73
2023-03-11T18:33:12.970Z,4.67
2023-03-11T18:35:39.488Z,4.60
2023-03-11T18:38:06.335Z,4.57
2023-03-11T18:40:33.178Z,4.56
2023-03-11T18:43:01.431Z,4.56
2023-03-11T18:45:28.083Z,4.55
2023-03-11T18:47:54.685Z,4.57
2023-03-11T18:50:22.681Z,4.53
2023-03-11T18:52:52.335Z,4.55
2023-03-11T18:55:19.673Z,4.46
2023-03-11T18:57:46.955Z,4.49
2023-03-11T19:00:16.487Z,4.52
2023-03-11T19:02:43.281Z,4.51
2023-03-11T19:05:10.734Z,4.51
2023-03-11T19:07:37.289Z,4.50
2023-03-11T19:10:05.409Z,4.48
2023-03-11T19:12:33.635Z,4.43
2023-03-11T19:15:01.499Z,4.29
2023-03-11T19:17:27.992Z,4.24
2023-03-11T19:19:54.881Z,4.16
2023-03-11T19:22:21.404Z,4.05
2023-03-11T19:24:50.283Z,3.99
2023-03-11T19:27:16.735Z,3.93
2023-03-11T19:29:43.199Z,3.91
2023-03-11T19:32:11.006Z,3.86
2023-03-11T19:34:38.360Z,3.82
2023-03-11T19:37:05.360Z,3.76
2023-03-11T19:39:33.681Z,3.71
2023-03-11T19:42:01.538Z,3.62
2023-03-11T19:44:28.128Z,3.57
2023-03-11T19:46:55.084Z,3.49
2023-03-11T19:49:21.991Z,3.40
2023-03-11T19:51:50.502Z,3.33
2023-03-11T19:54:17.785Z,3.27
2023-03-11T19:56:44.750Z,3.26
2023-03-11T19:59:12.466Z,3.18
2023-03-11T20:01:39.148Z,3.13
2023-03-11T20:04:05.850Z,3.09
2023-03-11T20:06:34.270Z,3.06
2023-03-11T20:09:00.821Z,3.01
2023-03-11T20:11:29.711Z,2.94
2023-03-11T20:13:56.423Z,2.89
2023-03-11T20:16:23.121Z,2.85
2023-03-11T20:18:50.591Z,2.79
2023-03-11T20:21:18.861Z,2.77
2023-03-11T20:23:45.580Z,2.73
2023-03-11T20:26:14.522Z,2.71
2023-03-11T20:28:41.658Z,2.68
2023-03-11T20:31:15.125Z,2.62
2023-03-11T20:33:41.747Z,2.56
2023-03-11T20:36:11.717Z,2.52
2023-03-11T20:38:38.357Z,2.48
2023-03-11T20:41:09.542Z,2.44
2023-03-11T20:43:37.581Z,2.34
2023-03-11T20:46:05.244Z,2.33
2023-03-11T20:48:32.442Z,2.29
2023-03-11T20:51:07.086Z,2.20
2023-03-11T20:53:46.250Z,2.18
2023-03-11T20:56:16.144Z,2.17
2023-03-11T20:58:43.148Z,2.16
2023-03-11T21:01:16.388Z,2.15
2023-03-11T21:03:43.952Z,2.08
2023-03-11T21:06:20.492Z,2.05
2023-03-11T21:08:47.689Z,2.01
2023-03-11T21:11:14.961Z,1.98
2023-03-11T21:13:41.858Z,1.96
2023-03-11T21:16:09.321Z,1.96
2023-03-11T21:18:36.111Z,1.95
2023-03-11T21:21:04.256Z,1.93
2023-03-11T21:23:30.957Z,1.93
2023-03-11T21:26:01.011Z,1.91
2023-03-11T21:28:29.699Z,1.90
2023-03-11T21:31:05.392Z,1.90
2023-03-11T21:33:32.264Z,1.89
2023-03-11T21:36:00.766Z,1.90
2023-03-11T21:38:28.220Z,1.91
2023-03-11T21:41:09.394Z,1.89
2023-03-11T21:43:36.391Z,1.90
2023-03-11T21:46:03.988Z,1.89
2023-03-11T21:48:31.911Z,1.90
2023-03-11T21:50:58.760Z,1.89
2023-03-11T21:53:25.882Z,1.85
2023-03-11T21:55:53.365Z,1.83
2023-03-11T21:58:20.232Z,1.83
2023-03-11T22:00:47.087Z,1.81
2023-03-11T22:03:13.945Z,1.79
2023-03-11T22:05:41.048Z,1.76
2023-03-11T22:08:07.529Z,1.73
2023-03-11T22:10:35.055Z,1.70
2023-03-11T22:13:01.497Z,1.64
2023-03-11T22:15:27.921Z,1.58
2023-03-11T22:17:54.517Z,1.54
2023-03-11T22:20:21.063Z,1.52
2023-03-11T22:22:49.770Z,1.48
2023-03-11T22:25:17.330Z,1.45
2023-03-11T22:27:46.356Z,1.43
2023-03-11T22:30:14.204Z,1.40
2023-03-11T22:32:40.720Z,1.34
2023-03-11T22:35:07.414Z,1.29
2023-03-11T22:37:33.893Z,1.24
2023-03-11T22:40:00.418Z,1.19
2023-03-11T22:42:27.948Z,1.19
2023-03-11T22:44:56.410Z,1.14
2023-03-11T22:47:22.879Z,1.08
2023-03-11T22:49:49.793Z,1.02
2023-03-11T22:52:17.453Z,1.01
2023-03-11T22:54:44.432Z,0.98
2023-03-11T22:57:10.977Z,0.96
2023-03-11T22:59:37.467Z,0.93
2023-03-11T23:02:05.497Z,0.92
2023-03-11T23:04:32.167Z,0.90
2023-03-11T23:07:01.215Z,0.85
2023-03-11T23:09:28.417Z,0.82
2023-03-11T23:11:56.024Z,0.84
2023-03-11T23:14:28.039Z,0.85
2023-03-11T23:17:07.770Z,0.86
2023-03-11T23:19:34.302Z,0.85
2023-03-11T23:22:01.301Z,0.86
2023-03-11T23:24:27.794Z,0.85
2023-03-11T23:26:54.347Z,0.87
2023-03-11T23:29:22.261Z,0.90
2023-03-11T23:31:48.784Z,0.89
2023-03-11T23:34:15.303Z,0.90
2023-03-11T23:36:42.257Z,0.88
2023-03-11T23:39:08.751Z,0.89
2023-03-11T23:41:36.508Z,0.91
2023-03-11T23:44:02.994Z,0.94
2023-03-11T23:46:31.263Z,0.96
2023-03-11T23:48:57.852Z,0.95
2023-03-11T23:51:24.532Z,0.98
2023-03-11T23:53:51.022Z,1.01
2023-03-11T23:56:20.570Z,0.99
2023-03-11T23:58:47.226Z,0.97
